sensor_id;sensor_type;location;lat;lon;timestamp;temperature;humidity
36444;DHT22;24692;45.642;13.806;2022-08-19T00:00:01;23.30;99.90
36444;DHT22;24692;45.642;13.806;2022-08-19T00:02:27;23.30;99.90
36444;DHT22;24692;45.642;13.806;2022-08-19T00:04:52;23.40;99.90
36444;DHT22;24692;45.642;13.806;2022-08-19T00:07:19;23.40;99.90
36444;DHT22;24692;45.642;13.806;2022-08-19T00:09:45;23.60;99.90
36444;DHT22;24692;45.642;13.806;2022-08-19T00:12:11;23.60;99.90
36444;DHT22;24692;45.642;13.806;2022-08-19T00:14:37;23.60;99.90
36444;DHT22;24692;45.642;13.806;2022-08-19T00:17:04;23.60;99.90
36444;DHT22;24692;45.642;13.806;2022-08-19T00:19:31;23.70;99.90
36444;DHT22;24692;45.642;13.806;2022-08-19T00:21:56;23.70;99.90
36444;DHT22;24692;45.642;13.806;2022-08-19T00:24:22;23.80;99.90
36444;DHT22;24692;45.642;13.806;2022-08-19T00:26:48;23.90;99.90
36444;DHT22;24692;45.642;13.806;2022-08-19T00:29:16;23.90;99.90
36444;DHT22;24692;45.642;13.806;2022-08-19T00:31:43;24.00;99.90
36444;DHT22;24692;45.642;13.806;2022-08-19T00:34:10;24.00;99.90
36444;DHT22;24692;45.642;13.806;2022-08-19T00:36:37;24.00;99.90
36444;DHT22;24692;45.642;13.806;2022-08-19T00:39:04;24.00;99.90
36444;DHT22;24692;45.642;13.806;2022-08-19T00:41:30;24.00;99.90
36444;DHT22;24692;45.642;13.806;2022-08-19T00:44:05;24.10;99.90
36444;DHT22;24692;45.642;13.806;2022-08-19T00:46:33;24.10;99.90
36444;DHT22;24692;45.642;13.806;2022-08-19T00:49:00;24.20;99.90
36444;DHT22;24692;45.642;13.806;2022-08-19T00:51:29;24.30;99.90
36444;DHT22;24692;45.642;13.806;2022-08-19T00:53:57;24.30;99.90
36444;DHT22;24692;45.642;13.806;2022-08-19T00:56:24;24.30;99.90
36444;DHT22;24692;45.642;13.806;2022-08-19T00:58:53;24.30;99.90
36444;DHT22;24692;45.642;13.806;2022-08-19T01:01:20;24.40;99.90
36444;DHT22;24692;45.642;13.806;2022-08-19T01:03:45;24.40;99.90
36444;DHT22;24692;45.642;13.806;2022-08-19T01:06:11;24.40;99.90
36444;DHT22;24692;45.642;13.806;2022-08-19T01:08:37;24.30;99.90
36444;DHT22;24692;45.642;13.806;2022-08-19T01:11:02;24.10;99.90
36444;DHT22;24692;45.642;13.806;2022-08-19T01:13:32;23.90;99.90
36444;DHT22;24692;45.642;13.806;2022-08-19T01:16:05;23.70;99.90
36444;DHT22;24692;45.642;13.806;2022-08-19T01:18:35;23.30;99.90
36444;DHT22;24692;45.642;13.806;2022-08-19T01:21:09;22.90;99.90
36444;DHT22;24692;45.642;13.806;2022-08-19T01:23:36;22.70;99.90
36444;DHT22;24692;45.642;13.806;2022-08-19T01:26:10;22.50;99.90
36444;DHT22;24692;45.642;13.806;2022-08-19T01:28:37;22.20;99.90
36444;DHT22;24692;45.642;13.806;2022-08-19T01:31:04;21.90;99.90
36444;DHT22;24692;45.642;13.806;2022-08-19T01:33:30;21.60;99.90
36444;DHT22;24692;45.642;13.806;2022-08-19T01:36:38;21.40;99.90
36444;DHT22;24692;45.642;13.806;2022-08-19T01:39:07;21.10;99.90
36444;DHT22;24692;45.642;13.806;2022-08-19T01:41:35;20.90;99.90
36444;DHT22;24692;45.642;13.806;2022-08-19T01:44:01;20.90;99.90
36444;DHT22;24692;45.642;13.806;2022-08-19T01:46:29;20.90;99.90
36444;DHT22;24692;45.642;13.806;2022-08-19T01:48:55;21.00;99.90
36444;DHT22;24692;45.642;13.806;2022-08-19T01:51:21;21.00;99.90
36444;DHT22;24692;45.642;13.806;2022-08-19T01:53:48;20.90;99.90
36444;DHT22;24692;45.642;13.806;2022-08-19T01:56:14;20.80;99.90
36444;DHT22;24692;45.642;13.806;2022-08-19T01:58:47;20.80;99.90
36444;DHT22;24692;45.642;13.806;2022-08-19T02:01:14;20.80;99.90
36444;DHT22;24692;45.642;13.806;2022-08-19T02:03:40;21.00;99.90
36444;DHT22;24692;45.642;13.806;2022-08-19T02:06:06;20.90;99.90
36444;DHT22;24692;45.642;13.806;2022-08-19T02:08:34;20.80;99.90
36444;DHT22;24692;45.642;13.806;2022-08-19T02:11:00;20.70;99.90
36444;DHT22;24692;45.642;13.806;2022-08-19T02:13:26;20.60;99.90
36444;DHT22;24692;45.642;13.806;2022-08-19T02:15:52;20.40;99.90
36444;DHT22;24692;45.642;13.806;2022-08-19T02:18:18;20.50;99.90
36444;DHT22;24692;45.642;13.806;2022-08-19T02:20:44;20.50;99.90
36444;DHT22;24692;45.642;13.806;2022-08-19T02:23:11;20.50;99.90
36444;DHT22;24692;45.642;13.806;2022-08-19T02:25:37;20.60;99.90
36444;DHT22;24692;45.642;13.806;2022-08-19T02:28:03;20.60;99.90
36444;DHT22;24692;45.642;13.806;2022-08-19T02:30:29;20.50;99.90
36444;DHT22;24692;45.642;13.806;2022-08-19T02:32:55;20.30;99.90
36444;DHT22;24692;45.642;13.806;2022-08-19T02:35:21;20.20;99.90
36444;DHT22;24692;45.642;13.806;2022-08-19T02:37:47;20.20;99.90
36444;DHT22;24692;45.642;13.806;2022-08-19T02:40:32;20.20;99.90
36444;DHT22;24692;45.642;13.806;2022-08-19T02:43:02;20.20;99.90
36444;DHT22;24692;45.642;13.806;2022-08-19T02:45:32;20.30;99.90
36444;DHT22;24692;45.642;13.806;2022-08-19T02:47:58;20.30;99.90
36444;DHT22;24692;45.642;13.806;2022-08-19T02:50:24;20.30;99.90
36444;DHT22;24692;45.642;13.806;2022-08-19T02:52:49;20.20;99.90
36444;DHT22;24692;45.642;13.806;2022-08-19T02:55:15;20.20;99.90
36444;DHT22;24692;45.642;13.806;2022-08-19T02:57:41;20.20;99.90
36444;DHT22;24692;45.642;13.806;2022-08-19T03:00:07;20.10;99.90
36444;DHT22;24692;45.642;13.806;2022-08-19T03:02:34;20.10;99.90
36444;DHT22;24692;45.642;13.806;2022-08-19T03:05:02;20.20;99.90
36444;DHT22;24692;45.642;13.806;2022-08-19T03:07:27;20.10;99.90
36444;DHT22;24692;45.642;13.806;2022-08-19T03:09:53;20.10;99.90
36444;DHT22;24692;45.642;13.806;2022-08-19T03:12:19;20.10;99.90
36444;DHT22;24692;45.642;13.806;2022-08-19T03:14:44;20.10;99.90
36444;DHT22;24692;45.642;13.806;2022-08-19T03:17:11;20.20;99.90
36444;DHT22;24692;45.642;13.806;2022-08-19T03:19:38;20.20;99.90
36444;DHT22;24692;45.642;13.806;2022-08-19T03:22:03;20.20;99.90
36444;DHT22;24692;45.642;13.806;2022-08-19T03:24:30;20.30;99.90
36444;DHT22;24692;45.642;13.806;2022-08-19T03:26:56;20.30;99.90
36444;DHT22;24692;45.642;13.806;2022-08-19T03:29:24;20.20;99.90
36444;DHT22;24692;45.642;13.806;2022-08-19T03:31:50;20.20;99.90
36444;DHT22;24692;45.642;13.806;2022-08-19T03:34:23;20.20;99.90
36444;DHT22;24692;45.642;13.806;2022-08-19T03:36:54;20.20;99.90
36444;DHT22;24692;45.642;13.806;2022-08-19T03:39:20;20.20;99.90
36444;DHT22;24692;45.642;13.806;2022-08-19T03:41:47;20.20;99.90
36444;DHT22;24692;45.642;13.806;2022-08-19T03:44:17;20.20;99.90
36444;DHT22;24692;45.642;13.806;2022-08-19T03:46:43;20.30;99.90
36444;DHT22;24692;45.642;13.806;2022-08-19T03:49:09;20.30;99.90
36444;DHT22;24692;45.642;13.806;2022-08-19T03:51:37;20.40;99.90
36444;DHT22;24692;45.642;13.806;2022-08-19T03:54:06;20.40;99.90
36444;DHT22;24692;45.642;13.806;2022-08-19T03:56:35;20.50;99.90
36444;DHT22;24692;45.642;13.806;2022-08-19T03:59:00;20.60;99.90
36444;DHT22;24692;45.642;13.806;2022-08-19T04:01:28;20.70;99.90
36444;DHT22;24692;45.642;13.806;2022-08-19T04:03:56;20.80;99.90
36444;DHT22;24692;45.642;13.806;2022-08-19T04:06:24;20.70;99.90
36444;DHT22;24692;45.642;13.806;2022-08-19T04:08:52;20.50;99.90
36444;DHT22;24692;45.642;13.806;2022-08-19T04:11:25;20.40;99.90
36444;DHT22;24692;45.642;13.806;2022-08-19T04:13:53;20.30;99.90
36444;DHT22;24692;45.642;13.806;2022-08-19T04:16:21;20.20;99.90
36444;DHT22;24692;45.642;13.806;2022-08-19T04:18:48;20.00;99.90
36444;DHT22;24692;45.642;13.806;2022-08-19T04:21:20;19.80;99.90
36444;DHT22;24692;45.642;13.806;2022-08-19T04:23:46;19.60;99.90
36444;DHT22;24692;45.642;13.806;2022-08-19T04:26:14;19.50;99.90
36444;DHT22;24692;45.642;13.806;2022-08-19T04:28:41;19.50;99.90
36444;DHT22;24692;45.642;13.806;2022-08-19T04:31:16;19.50;99.90
36444;DHT22;24692;45.642;13.806;2022-08-19T04:33:43;19.50;99.90
36444;DHT22;24692;45.642;13.806;2022-08-19T04:36:25;19.40;99.90
36444;DHT22;24692;45.642;13.806;2022-08-19T04:38:54;19.30;99.90
36444;DHT22;24692;45.642;13.806;2022-08-19T04:41:20;19.30;99.90
36444;DHT22;24692;45.642;13.806;2022-08-19T04:44:05;19.30;99.90
36444;DHT22;24692;45.642;13.806;2022-08-19T04:46:31;19.20;99.90
36444;DHT22;24692;45.642;13.806;2022-08-19T04:48:58;19.20;99.90
36444;DHT22;24692;45.642;13.806;2022-08-19T04:51:24;19.10;99.90
36444;DHT22;24692;45.642;13.806;2022-08-19T04:53:50;19.10;99.90
36444;DHT22;24692;45.642;13.806;2022-08-19T04:56:17;19.10;99.90
36444;DHT22;24692;45.642;13.806;2022-08-19T04:58:45;19.10;99.90
36444;DHT22;24692;45.642;13.806;2022-08-19T05:01:18;19.00;99.90
36444;DHT22;24692;45.642;13.806;2022-08-19T05:03:44;19.10;99.90
36444;DHT22;24692;45.642;13.806;2022-08-19T05:06:13;19.00;99.90
36444;DHT22;24692;45.642;13.806;2022-08-19T05:08:40;19.10;99.90
36444;DHT22;24692;45.642;13.806;2022-08-19T05:11:14;19.10;99.90
36444;DHT22;24692;45.642;13.806;2022-08-19T05:13:42;19.10;99.90
36444;DHT22;24692;45.642;13.806;2022-08-19T05:16:09;19.20;99.90
36444;DHT22;24692;45.642;13.806;2022-08-19T05:18:35;19.20;99.90
36444;DHT22;24692;45.642;13.806;2022-08-19T05:21:20;19.30;99.90
36444;DHT22;24692;45.642;13.806;2022-08-19T05:24:09;19.20;99.90
36444;DHT22;24692;45.642;13.806;2022-08-19T05:26:36;19.20;99.90
36444;DHT22;24692;45.642;13.806;2022-08-19T05:29:03;19.20;99.90
36444;DHT22;24692;45.642;13.806;2022-08-19T05:31:29;19.20;99.90
36444;DHT22;24692;45.642;13.806;2022-08-19T05:33:55;19.30;99.90
36444;DHT22;24692;45.642;13.806;2022-08-19T05:36:24;19.40;99.90
36444;DHT22;24692;45.642;13.806;2022-08-19T05:38:50;19.40;99.90
36444;DHT22;24692;45.642;13.806;2022-08-19T05:41:18;19.50;99.90
36444;DHT22;24692;45.642;13.806;2022-08-19T05:43:44;19.60;99.90
36444;DHT22;24692;45.642;13.806;2022-08-19T05:46:19;19.70;99.90
36444;DHT22;24692;45.642;13.806;2022-08-19T05:48:46;19.90;99.90
36444;DHT22;24692;45.642;13.806;2022-08-19T05:51:11;20.00;99.90
36444;DHT22;24692;45.642;13.806;2022-08-19T05:53:37;20.10;99.90
36444;DHT22;24692;45.642;13.806;2022-08-19T05:56:07;20.20;99.90
36444;DHT22;24692;45.642;13.806;2022-08-19T05:58:34;20.20;99.90
36444;DHT22;24692;45.642;13.806;2022-08-19T06:01:00;20.30;99.90
36444;DHT22;24692;45.642;13.806;2022-08-19T06:03:34;20.40;99.90
36444;DHT22;24692;45.642;13.806;2022-08-19T06:06:01;20.50;99.90
36444;DHT22;24692;45.642;13.806;2022-08-19T06:08:28;20.50;99.90
36444;DHT22;24692;45.642;13.806;2022-08-19T06:10:54;20.70;99.90
36444;DHT22;24692;45.642;13.806;2022-08-19T06:13:20;20.70;99.90
36444;DHT22;24692;45.642;13.806;2022-08-19T06:15:48;20.90;99.90
36444;DHT22;24692;45.642;13.806;2022-08-19T06:18:15;20.90;99.90
36444;DHT22;24692;45.642;13.806;2022-08-19T06:20:41;21.00;99.90
36444;DHT22;24692;45.642;13.806;2022-08-19T06:23:07;21.10;99.90
36444;DHT22;24692;45.642;13.806;2022-08-19T06:25:34;21.30;99.90
36444;DHT22;24692;45.642;13.806;2022-08-19T06:28:01;21.40;99.90
36444;DHT22;24692;45.642;13.806;2022-08-19T06:30:27;21.50;99.90
36444;DHT22;24692;45.642;13.806;2022-08-19T06:32:53;21.70;99.90
36444;DHT22;24692;45.642;13.806;2022-08-19T06:35:19;21.80;99.90
36444;DHT22;24692;45.642;13.806;2022-08-19T06:37:44;21.90;99.90
36444;DHT22;24692;45.642;13.806;2022-08-19T06:40:11;22.10;99.90
36444;DHT22;24692;45.642;13.806;2022-08-19T06:42:37;22.30;99.90
36444;DHT22;24692;45.642;13.806;2022-08-19T06:45:04;22.50;99.90
36444;DHT22;24692;45.642;13.806;2022-08-19T06:47:31;22.70;99.90
36444;DHT22;24692;45.642;13.806;2022-08-19T06:49:59;22.80;99.90
36444;DHT22;24692;45.642;13.806;2022-08-19T06:52:32;23.00;99.90
36444;DHT22;24692;45.642;13.806;2022-08-19T06:55:01;23.20;99.90
36444;DHT22;24692;45.642;13.806;2022-08-19T06:57:28;23.50;99.90
36444;DHT22;24692;45.642;13.806;2022-08-19T06:59:58;23.60;99.90
36444;DHT22;24692;45.642;13.806;2022-08-19T07:02:25;23.80;99.90
36444;DHT22;24692;45.642;13.806;2022-08-19T07:04:52;24.00;99.90
36444;DHT22;24692;45.642;13.806;2022-08-19T07:07:19;24.00;99.90
36444;DHT22;24692;45.642;13.806;2022-08-19T07:09:50;24.00;99.90
36444;DHT22;24692;45.642;13.806;2022-08-19T07:12:18;24.10;99.90
36444;DHT22;24692;45.642;13.806;2022-08-19T07:14:44;24.10;99.90
36444;DHT22;24692;45.642;13.806;2022-08-19T07:17:11;24.20;99.90
36444;DHT22;24692;45.642;13.806;2022-08-19T07:19:38;24.10;99.90
36444;DHT22;24692;45.642;13.806;2022-08-19T07:22:06;24.10;99.90
36444;DHT22;24692;45.642;13.806;2022-08-19T07:24:33;24.10;99.90
36444;DHT22;24692;45.642;13.806;2022-08-19T07:27:01;24.10;99.90
36444;DHT22;24692;45.642;13.806;2022-08-19T07:29:30;24.20;99.90
36444;DHT22;24692;45.642;13.806;2022-08-19T07:31:56;24.20;99.90
36444;DHT22;24692;45.642;13.806;2022-08-19T07:34:24;24.20;99.90
36444;DHT22;24692;45.642;13.806;2022-08-19T07:36:51;24.50;99.90
36444;DHT22;24692;45.642;13.806;2022-08-19T07:39:29;24.90;99.90
36444;DHT22;24692;45.642;13.806;2022-08-19T07:41:56;25.30;99.90
36444;DHT22;24692;45.642;13.806;2022-08-19T07:44:23;25.50;99.90
36444;DHT22;24692;45.642;13.806;2022-08-19T07:46:52;25.70;99.90
36444;DHT22;24692;45.642;13.806;2022-08-19T07:49:18;25.80;99.90
36444;DHT22;24692;45.642;13.806;2022-08-19T07:51:53;25.90;99.90
36444;DHT22;24692;45.642;13.806;2022-08-19T07:54:21;26.10;99.90
36444;DHT22;24692;45.642;13.806;2022-08-19T07:56:47;26.20;99.90
36444;DHT22;24692;45.642;13.806;2022-08-19T07:59:13;26.20;99.90
36444;DHT22;24692;45.642;13.806;2022-08-19T08:01:39;26.10;99.90
36444;DHT22;24692;45.642;13.806;2022-08-19T08:04:06;25.90;99.90
36444;DHT22;24692;45.642;13.806;2022-08-19T08:06:51;25.90;99.90
36444;DHT22;24692;45.642;13.806;2022-08-19T08:09:39;25.80;99.90
36444;DHT22;24692;45.642;13.806;2022-08-19T08:12:31;26.00;99.90
36444;DHT22;24692;45.642;13.806;2022-08-19T08:14:55;26.20;99.90
36444;DHT22;24692;45.642;13.806;2022-08-19T08:17:24;26.30;99.90
36444;DHT22;24692;45.642;13.806;2022-08-19T08:19:50;26.30;99.90
36444;DHT22;24692;45.642;13.806;2022-08-19T08:22:19;26.30;99.90
36444;DHT22;24692;45.642;13.806;2022-08-19T08:25:16;26.40;99.90
36444;DHT22;24692;45.642;13.806;2022-08-19T08:27:44;26.60;99.90
36444;DHT22;24692;45.642;13.806;2022-08-19T08:30:14;27.00;99.90
36444;DHT22;24692;45.642;13.806;2022-08-19T08:32:41;27.90;99.90
36444;DHT22;24692;45.642;13.806;2022-08-19T08:35:10;29.20;99.90
36444;DHT22;24692;45.642;13.806;2022-08-19T08:37:36;30.70;99.90
36444;DHT22;24692;45.642;13.806;2022-08-19T08:43:28;32.20;99.90
36444;DHT22;24692;45.642;13.806;2022-08-19T08:46:50;31.80;99.90
36444;DHT22;24692;45.642;13.806;2022-08-19T08:51:52;30.30;99.90
36444;DHT22;24692;45.642;13.806;2022-08-19T08:54:23;30.00;99.90
36444;DHT22;24692;45.642;13.806;2022-08-19T08:56:51;29.70;99.90
36444;DHT22;24692;45.642;13.806;2022-08-19T08:59:26;29.40;99.90
36444;DHT22;24692;45.642;13.806;2022-08-19T09:01:53;29.20;99.90
36444;DHT22;24692;45.642;13.806;2022-08-19T09:04:19;29.20;99.90
36444;DHT22;24692;45.642;13.806;2022-08-19T09:07:22;29.10;99.90
36444;DHT22;24692;45.642;13.806;2022-08-19T09:09:51;29.00;99.90
36444;DHT22;24692;45.642;13.806;2022-08-19T09:12:53;28.80;99.90
36444;DHT22;24692;45.642;13.806;2022-08-19T09:15:12;28.70;99.90
36444;DHT22;24692;45.642;13.806;2022-08-19T09:17:38;28.60;99.90
36444;DHT22;24692;45.642;13.806;2022-08-19T09:20:24;28.70;99.90
36444;DHT22;24692;45.642;13.806;2022-08-19T09:22:50;28.90;99.90
36444;DHT22;24692;45.642;13.806;2022-08-19T09:25:19;29.20;99.90
36444;DHT22;24692;45.642;13.806;2022-08-19T09:27:49;29.40;99.90
36444;DHT22;24692;45.642;13.806;2022-08-19T09:30:19;29.40;99.90
36444;DHT22;24692;45.642;13.806;2022-08-19T09:32:46;29.50;99.90
36444;DHT22;24692;45.642;13.806;2022-08-19T09:35:13;29.80;99.90
36444;DHT22;24692;45.642;13.806;2022-08-19T09:37:39;30.10;99.90
36444;DHT22;24692;45.642;13.806;2022-08-19T09:40:05;30.30;99.90
36444;DHT22;24692;45.642;13.806;2022-08-19T09:42:32;30.60;99.90
36444;DHT22;24692;45.642;13.806;2022-08-19T09:44:59;30.60;99.90
36444;DHT22;24692;45.642;13.806;2022-08-19T09:47:25;30.40;99.90
36444;DHT22;24692;45.642;13.806;2022-08-19T09:49:51;30.30;99.90
36444;DHT22;24692;45.642;13.806;2022-08-19T09:52:16;30.70;99.90
36444;DHT22;24692;45.642;13.806;2022-08-19T09:54:43;31.50;99.90
36444;DHT22;24692;45.642;13.806;2022-08-19T09:57:09;31.80;99.90
36444;DHT22;24692;45.642;13.806;2022-08-19T09:59:35;33.20;99.90
36444;DHT22;24692;45.642;13.806;2022-08-19T10:02:01;33.90;99.90
36444;DHT22;24692;45.642;13.806;2022-08-19T10:04:26;34.90;99.90
36444;DHT22;24692;45.642;13.806;2022-08-19T10:07:12;34.10;99.90
36444;DHT22;24692;45.642;13.806;2022-08-19T10:09:38;33.00;99.90
36444;DHT22;24692;45.642;13.806;2022-08-19T10:12:06;31.90;99.90
36444;DHT22;24692;45.642;13.806;2022-08-19T10:14:33;31.20;99.90
36444;DHT22;24692;45.642;13.806;2022-08-19T10:16:59;30.70;99.90
36444;DHT22;24692;45.642;13.806;2022-08-19T10:19:26;30.10;99.90
36444;DHT22;24692;45.642;13.806;2022-08-19T10:21:54;29.60;99.90
36444;DHT22;24692;45.642;13.806;2022-08-19T10:24:19;29.40;99.90
36444;DHT22;24692;45.642;13.806;2022-08-19T10:26:45;29.30;99.90
36444;DHT22;24692;45.642;13.806;2022-08-19T10:29:14;29.20;99.90
36444;DHT22;24692;45.642;13.806;2022-08-19T10:31:41;28.90;99.90
36444;DHT22;24692;45.642;13.806;2022-08-19T10:34:07;28.50;99.90
36444;DHT22;24692;45.642;13.806;2022-08-19T10:36:36;27.90;99.90
36444;DHT22;24692;45.642;13.806;2022-08-19T10:39:05;27.00;99.90
36444;DHT22;24692;45.642;13.806;2022-08-19T10:41:33;26.20;99.90
36444;DHT22;24692;45.642;13.806;2022-08-19T10:44:02;25.00;99.90
36444;DHT22;24692;45.642;13.806;2022-08-19T10:46:29;24.10;99.90
36444;DHT22;24692;45.642;13.806;2022-08-19T10:49:01;23.70;99.90
36444;DHT22;24692;45.642;13.806;2022-08-19T10:51:27;23.50;99.90
36444;DHT22;24692;45.642;13.806;2022-08-19T10:54:11;23.20;99.90
36444;DHT22;24692;45.642;13.806;2022-08-19T10:56:37;22.90;99.90
36444;DHT22;24692;45.642;13.806;2022-08-19T10:59:25;23.10;99.90
36444;DHT22;24692;45.642;13.806;2022-08-19T11:01:54;23.80;99.90
36444;DHT22;24692;45.642;13.806;2022-08-19T11:04:20;24.30;99.90
36444;DHT22;24692;45.642;13.806;2022-08-19T11:06:48;24.60;99.90
36444;DHT22;24692;45.642;13.806;2022-08-19T11:09:16;25.50;99.90
36444;DHT22;24692;45.642;13.806;2022-08-19T11:11:42;26.00;99.90
36444;DHT22;24692;45.642;13.806;2022-08-19T11:14:10;26.60;99.90
36444;DHT22;24692;45.642;13.806;2022-08-19T11:16:36;27.00;99.90
36444;DHT22;24692;45.642;13.806;2022-08-19T11:19:04;27.90;99.90
36444;DHT22;24692;45.642;13.806;2022-08-19T11:21:33;28.50;99.90
36444;DHT22;24692;45.642;13.806;2022-08-19T11:24:02;29.30;99.90
36444;DHT22;24692;45.642;13.806;2022-08-19T11:26:29;29.80;99.90
36444;DHT22;24692;45.642;13.806;2022-08-19T11:28:57;29.70;99.90
36444;DHT22;24692;45.642;13.806;2022-08-19T11:31:29;29.00;99.90
36444;DHT22;24692;45.642;13.806;2022-08-19T11:34:01;28.70;99.90
36444;DHT22;24692;45.642;13.806;2022-08-19T11:36:29;28.80;99.90
36444;DHT22;24692;45.642;13.806;2022-08-19T11:38:55;28.90;99.90
36444;DHT22;24692;45.642;13.806;2022-08-19T11:41:22;29.40;99.90
36444;DHT22;24692;45.642;13.806;2022-08-19T11:43:49;29.90;99.90
36444;DHT22;24692;45.642;13.806;2022-08-19T11:46:16;30.60;99.90
36444;DHT22;24692;45.642;13.806;2022-08-19T11:48:42;31.00;99.90
36444;DHT22;24692;45.642;13.806;2022-08-19T11:51:17;31.40;99.90
36444;DHT22;24692;45.642;13.806;2022-08-19T11:53:44;31.40;99.90
36444;DHT22;24692;45.642;13.806;2022-08-19T11:56:11;31.10;99.90
36444;DHT22;24692;45.642;13.806;2022-08-19T11:58:38;30.60;99.90
36444;DHT22;24692;45.642;13.806;2022-08-19T12:01:08;30.40;99.90
36444;DHT22;24692;45.642;13.806;2022-08-19T12:03:34;30.10;99.90
36444;DHT22;24692;45.642;13.806;2022-08-19T12:06:12;30.30;99.90
36444;DHT22;24692;45.642;13.806;2022-08-19T12:08:41;30.20;99.90
36444;DHT22;24692;45.642;13.806;2022-08-19T12:11:07;30.50;99.90
36444;DHT22;24692;45.642;13.806;2022-08-19T12:13:34;30.10;99.90
36444;DHT22;24692;45.642;13.806;2022-08-19T12:16:00;30.30;99.90
36444;DHT22;24692;45.642;13.806;2022-08-19T12:18:32;31.60;99.90
36444;DHT22;24692;45.642;13.806;2022-08-19T12:20:57;32.60;99.90
36444;DHT22;24692;45.642;13.806;2022-08-19T12:23:26;33.80;99.90
36444;DHT22;24692;45.642;13.806;2022-08-19T12:25:51;34.00;99.90
36444;DHT22;24692;45.642;13.806;2022-08-19T12:28:21;35.00;99.90
36444;DHT22;24692;45.642;13.806;2022-08-19T12:30:49;35.30;99.90
36444;DHT22;24692;45.642;13.806;2022-08-19T12:33:19;35.70;99.90
36444;DHT22;24692;45.642;13.806;2022-08-19T12:35:50;36.10;99.90
36444;DHT22;24692;45.642;13.806;2022-08-19T12:38:16;35.70;99.90
36444;DHT22;24692;45.642;13.806;2022-08-19T12:40:45;35.10;99.90
36444;DHT22;24692;45.642;13.806;2022-08-19T12:43:12;34.80;99.90
36444;DHT22;24692;45.642;13.806;2022-08-19T12:45:37;34.20;99.90
36444;DHT22;24692;45.642;13.806;2022-08-19T12:48:03;33.90;99.90
36444;DHT22;24692;45.642;13.806;2022-08-19T12:50:30;34.10;99.90
36444;DHT22;24692;45.642;13.806;2022-08-19T12:52:56;34.10;99.90
36444;DHT22;24692;45.642;13.806;2022-08-19T12:55:22;34.20;99.90
36444;DHT22;24692;45.642;13.806;2022-08-19T12:57:48;35.00;99.90
36444;DHT22;24692;45.642;13.806;2022-08-19T13:00:20;35.80;99.90
36444;DHT22;24692;45.642;13.806;2022-08-19T13:02:48;36.10;99.90
36444;DHT22;24692;45.642;13.806;2022-08-19T13:05:19;36.50;99.90
36444;DHT22;24692;45.642;13.806;2022-08-19T13:07:46;36.00;99.90
36444;DHT22;24692;45.642;13.806;2022-08-19T13:10:15;35.00;99.90
36444;DHT22;24692;45.642;13.806;2022-08-19T13:12:42;35.20;99.90
36444;DHT22;24692;45.642;13.806;2022-08-19T13:15:09;34.90;99.90
36444;DHT22;24692;45.642;13.806;2022-08-19T13:17:35;33.50;99.90
36444;DHT22;24692;45.642;13.806;2022-08-19T13:20:02;33.70;99.90
36444;DHT22;24692;45.642;13.806;2022-08-19T13:22:28;34.40;99.90
36444;DHT22;24692;45.642;13.806;2022-08-19T13:24:53;34.70;99.90
36444;DHT22;24692;45.642;13.806;2022-08-19T13:27:19;35.50;99.90
36444;DHT22;24692;45.642;13.806;2022-08-19T13:29:45;36.20;99.90
36444;DHT22;24692;45.642;13.806;2022-08-19T13:32:30;36.60;99.90
36444;DHT22;24692;45.642;13.806;2022-08-19T13:35:15;36.80;99.90
36444;DHT22;24692;45.642;13.806;2022-08-19T13:37:40;36.70;99.90
36444;DHT22;24692;45.642;13.806;2022-08-19T13:42:39;36.30;99.90
36444;DHT22;24692;45.642;13.806;2022-08-19T13:45:06;36.30;99.90
36444;DHT22;24692;45.642;13.806;2022-08-19T13:47:33;34.80;99.90
36444;DHT22;24692;45.642;13.806;2022-08-19T13:50:09;35.00;99.90
36444;DHT22;24692;45.642;13.806;2022-08-19T13:52:36;35.20;99.90
36444;DHT22;24692;45.642;13.806;2022-08-19T13:55:02;36.00;99.90
36444;DHT22;24692;45.642;13.806;2022-08-19T13:57:28;35.20;99.90
36444;DHT22;24692;45.642;13.806;2022-08-19T13:59:54;34.90;99.90
36444;DHT22;24692;45.642;13.806;2022-08-19T14:02:20;35.90;99.90
36444;DHT22;24692;45.642;13.806;2022-08-19T14:04:45;36.70;99.90
36444;DHT22;24692;45.642;13.806;2022-08-19T14:07:11;37.00;99.90
36444;DHT22;24692;45.642;13.806;2022-08-19T14:09:37;36.60;99.90
36444;DHT22;24692;45.642;13.806;2022-08-19T14:12:03;35.90;99.90
36444;DHT22;24692;45.642;13.806;2022-08-19T14:14:29;35.40;99.90
36444;DHT22;24692;45.642;13.806;2022-08-19T14:16:55;34.90;99.90
36444;DHT22;24692;45.642;13.806;2022-08-19T14:19:20;34.80;99.90
36444;DHT22;24692;45.642;13.806;2022-08-19T14:21:46;34.80;99.90
36444;DHT22;24692;45.642;13.806;2022-08-19T14:24:12;34.80;99.90
36444;DHT22;24692;45.642;13.806;2022-08-19T14:26:38;34.40;99.90
36444;DHT22;24692;45.642;13.806;2022-08-19T14:29:04;34.40;99.90
36444;DHT22;24692;45.642;13.806;2022-08-19T14:31:30;34.60;99.90
36444;DHT22;24692;45.642;13.806;2022-08-19T14:33:55;34.10;99.90
36444;DHT22;24692;45.642;13.806;2022-08-19T14:36:21;33.90;99.90
36444;DHT22;24692;45.642;13.806;2022-08-19T14:38:47;33.90;99.90
36444;DHT22;24692;45.642;13.806;2022-08-19T14:41:20;33.50;99.90
36444;DHT22;24692;45.642;13.806;2022-08-19T14:43:49;33.90;99.90
36444;DHT22;24692;45.642;13.806;2022-08-19T14:46:18;33.90;99.90
36444;DHT22;24692;45.642;13.806;2022-08-19T14:48:45;34.00;99.90
36444;DHT22;24692;45.642;13.806;2022-08-19T14:51:11;33.80;99.90
36444;DHT22;24692;45.642;13.806;2022-08-19T14:53:37;33.90;99.90
36444;DHT22;24692;45.642;13.806;2022-08-19T14:56:11;34.00;99.90
36444;DHT22;24692;45.642;13.806;2022-08-19T14:58:39;33.20;99.90
36444;DHT22;24692;45.642;13.806;2022-08-19T15:01:07;32.50;99.90
36444;DHT22;24692;45.642;13.806;2022-08-19T15:03:33;32.60;99.90
36444;DHT22;24692;45.642;13.806;2022-08-19T15:06:01;32.20;99.90
36444;DHT22;24692;45.642;13.806;2022-08-19T15:08:28;31.90;99.90
36444;DHT22;24692;45.642;13.806;2022-08-19T15:10:55;32.30;99.90
36444;DHT22;24692;45.642;13.806;2022-08-19T15:13:21;31.90;99.90
36444;DHT22;24692;45.642;13.806;2022-08-19T15:15:48;31.70;99.90
36444;DHT22;24692;45.642;13.806;2022-08-19T15:18:14;31.30;99.90
36444;DHT22;24692;45.642;13.806;2022-08-19T15:20:39;31.50;99.90
36444;DHT22;24692;45.642;13.806;2022-08-19T15:23:05;31.80;99.90
36444;DHT22;24692;45.642;13.806;2022-08-19T15:25:31;31.70;99.90
36444;DHT22;24692;45.642;13.806;2022-08-19T15:27:58;31.60;99.90
36444;DHT22;24692;45.642;13.806;2022-08-19T15:30:26;31.20;99.90